Terminal Aerodrome Forecast
Issued by NWS

Home | Current Version | Previous Version | Text Only | Print | Product List | Glossary On
Versions: 1 2 3 4 5 6 7 8 9 10 11 12 13 14 15 16 17 18 19 20 21
000
FTUS46 KSTO 280500
TAFSMF
TAF
KSMF 280520Z 2806/2906 VRB04KT P6SM SCT150
     FM280800 32004KT 4SM BR SCT150
      TEMPO 2814/2818 33005KT 2SM BR
     FM281900 34007KT P6SM BKN200
     FM290300 VRB04KT 6SM HZ BKN200=

USA.gov is the U.S. government's official web portal to all federal, state and local government web resources and services.